Time;durP1;ratioP1;P1;durP2;ratioP2;P2;SDS_P1;SDS_P2;PMS_P1;PMS_P2;Temp;Humidity;BMP_temperature;BMP_pressure;BME280_temperature;BME280_humidity;BME280_pressure;Samples;Min_cycle;Max_cycle;Signal;HPM_P1;HPM_P2
2023/08/03 00:01:01;;;;;;;5.27;3.10;;;;;;;;;;10508521;28;20048;-76
2023/08/03 00:06:02;;;;;;;7.03;3.17;;;;;;;;;;10494937;28;20036;-75
2023/08/03 00:11:02;;;;;;;5.93;2.58;;;;;;;;;;10500258;28;20036;-77
2023/08/03 00:16:02;;;;;;;6.53;2.90;;;;;;;;;;10501180;28;20098;-80
2023/08/03 00:21:03;;;;;;;6.20;3.70;;;;;;;;;;10498192;28;20080;-78
2023/08/03 00:26:03;;;;;;;6.87;3.10;;;;;;;;;;10496276;28;20532;-78
2023/08/03 00:31:03;;;;;;;4.82;2.80;;;;;;;;;;10500828;28;20472;-78
2023/08/03 00:36:04;;;;;;;4.50;3.07;;;;;;;;;;10484891;28;20028;-78
2023/08/03 00:41:06;;;;;;;5.53;2.60;;;;;;;;;;10481395;28;20816;-79
2023/08/03 00:46:06;;;;;;;4.43;2.65;;;;;;;;;;10492335;28;20056;-78
2023/08/03 00:51:07;;;;;;;3.83;2.13;;;;;;;;;;10500419;28;20028;-77
2023/08/03 00:56:07;;;;;;;4.20;2.53;;;;;;;;;;10504615;28;20796;-79
2023/08/03 01:01:07;;;;;;;4.20;2.70;;;;;;;;;;10499662;28;20068;-78
2023/08/03 01:06:08;;;;;;;4.03;2.38;;;;;;;;;;10500478;28;20532;-77
2023/08/03 01:11:08;;;;;;;4.45;2.35;;;;;;;;;;10505647;28;20044;-77
2023/08/03 01:16:12;;;;;;;5.60;2.10;;;;;;;;;;10494213;28;20044;-82
2023/08/03 01:21:13;;;;;;;5.85;2.58;;;;;;;;;;10488176;28;20319;-78
2023/08/03 01:26:13;;;;;;;5.35;2.25;;;;;;;;;;10481421;28;20121;-78
2023/08/03 01:31:14;;;;;;;4.67;2.30;;;;;;;;;;10510883;28;20062;-78
2023/08/03 01:36:14;;;;;;;3.95;2.20;;;;;;;;;;10498365;28;21006;-77
2023/08/03 01:41:15;;;;;;;4.37;2.40;;;;;;;;;;10478084;28;20115;-76
2023/08/03 01:46:15;;;;;;;7.65;2.33;;;;;;;;;;10499452;28;20281;-77
2023/08/03 01:51:15;;;;;;;3.93;2.10;;;;;;;;;;10501126;28;20051;-76
2023/08/03 01:56:16;;;;;;;7.00;2.27;;;;;;;;;;10497532;28;20028;-77
2023/08/03 02:01:16;;;;;;;5.17;1.90;;;;;;;;;;10497937;28;20052;-75
2023/08/03 02:06:17;;;;;;;5.43;1.95;;;;;;;;;;10498049;28;21225;-76
2023/08/03 02:11:17;;;;;;;4.70;2.22;;;;;;;;;;10476052;28;20593;-78
2023/08/03 02:16:18;;;;;;;6.17;2.00;;;;;;;;;;10495072;28;20143;-78
2023/08/03 02:21:18;;;;;;;3.47;2.00;;;;;;;;;;10495818;28;20139;-76
2023/08/03 02:26:18;;;;;;;4.50;1.83;;;;;;;;;;10491192;28;20032;-76
2023/08/03 02:31:19;;;;;;;5.50;2.17;;;;;;;;;;10502310;28;20490;-78
2023/08/03 02:36:23;;;;;;;7.45;2.20;;;;;;;;;;10484630;28;20099;-76
2023/08/03 02:41:28;;;;;;;3.03;1.65;;;;;;;;;;10476880;28;20055;-76
2023/08/03 02:46:30;;;;;;;4.80;1.85;;;;;;;;;;10500466;28;20415;-77
2023/08/03 02:51:31;;;;;;;;;;;;;;;;;;10491490;28;20039;-76
2023/08/03 02:56:32;;;;;;;3.20;2.20;;;;;;;;;;10475574;28;19917;-76
2023/08/03 03:01:34;;;;;;;3.53;1.90;;;;;;;;;;10479362;28;20457;-77
2023/08/03 03:06:34;;;;;;;5.00;1.90;;;;;;;;;;10477101;28;20040;-78
2023/08/03 03:11:36;;;;;;;8.32;2.25;;;;;;;;;;10477758;28;20028;-78
2023/08/03 03:16:36;;;;;;;4.72;2.10;;;;;;;;;;10470908;28;20487;-77
2023/08/03 03:21:37;;;;;;;6.10;2.28;;;;;;;;;;10494725;28;20051;-79
2023/08/03 03:26:37;;;;;;;5.20;2.10;;;;;;;;;;10492687;28;20032;-77
2023/08/03 03:31:37;;;;;;;4.93;1.90;;;;;;;;;;10493613;28;20336;-80
2023/08/03 03:36:38;;;;;;;4.15;2.17;;;;;;;;;;10476085;28;20064;-77
2023/08/03 03:41:40;;;;;;;5.72;2.10;;;;;;;;;;10498781;28;20036;-78
2023/08/03 03:46:41;;;;;;;5.95;2.13;;;;;;;;;;10494121;28;20436;-77
2023/08/03 03:51:43;;;;;;;4.90;2.17;;;;;;;;;;10476829;28;20044;-76
2023/08/03 03:56:44;;;;;;;5.43;1.95;;;;;;;;;;10493488;28;20040;-76
2023/08/03 04:01:45;;;;;;;5.03;2.00;;;;;;;;;;10482702;28;20051;-77
2023/08/03 04:06:45;;;;;;;4.33;1.70;;;;;;;;;;10477827;28;20047;-76
2023/08/03 04:11:46;;;;;;;6.40;2.20;;;;;;;;;;10470573;28;20287;-77
2023/08/03 04:16:46;;;;;;;5.50;2.07;;;;;;;;;;10491985;28;20028;-78
2023/08/03 04:21:48;;;;;;;6.80;2.17;;;;;;;;;;10474846;28;20040;-78
2023/08/03 04:26:49;;;;;;;7.03;2.67;;;;;;;;;;10471233;28;20070;-77
2023/08/03 04:31:54;;;;;;;7.90;2.03;;;;;;;;;;10482494;28;20708;-79
2023/08/03 04:36:57;;;;;;;5.83;1.97;;;;;;;;;;10475132;28;20036;-79
2023/08/03 04:41:57;;;;;;;6.88;2.00;;;;;;;;;;10490850;28;20048;-77
2023/08/03 04:47:03;;;;;;;4.57;1.70;;;;;;;;;;10472921;28;20043;-77
2023/08/03 04:52:04;;;;;;;3.53;1.63;;;;;;;;;;10471329;28;20036;-77
2023/08/03 04:57:05;;;;;;;4.85;1.27;;;;;;;;;;10498068;28;20151;-78
2023/08/03 05:02:09;;;;;;;2.83;1.17;;;;;;;;;;10480479;28;20063;-77
2023/08/03 05:07:10;;;;;;;3.42;1.00;;;;;;;;;;10478730;28;20040;-76
2023/08/03 05:12:12;;;;;;;1.53;0.80;;;;;;;;;;10477857;28;20036;-77
2023/08/03 05:17:13;;;;;;;1.70;1.15;;;;;;;;;;10478414;28;20675;-77
2023/08/03 05:22:13;;;;;;;4.57;1.90;;;;;;;;;;10477317;28;20075;-79
2023/08/03 05:27:13;;;;;;;4.77;1.40;;;;;;;;;;10500454;28;20036;-74
2023/08/03 05:32:14;;;;;;;3.50;1.30;;;;;;;;;;10496943;28;20032;-75
2023/08/03 05:37:15;;;;;;;3.03;1.20;;;;;;;;;;10478664;28;20039;-76
2023/08/03 05:42:16;;;;;;;5.32;1.20;;;;;;;;;;10503389;28;20720;-74
2023/08/03 05:47:17;;;;;;;4.20;1.30;;;;;;;;;;10482957;28;20077;-81
2023/08/03 05:52:18;;;;;;;4.25;1.05;;;;;;;;;;10511038;28;20043;-80
2023/08/03 05:57:18;;;;;;;3.43;1.20;;;;;;;;;;10506698;28;20496;-79
2023/08/03 06:02:33;;;;;;;4.93;1.17;;;;;;;;;;10527024;28;20719;-80
2023/08/03 06:07:33;;;;;;;4.60;1.40;;;;;;;;;;10506166;28;20028;-80
2023/08/03 06:12:33;;;;;;;2.17;1.03;;;;;;;;;;10505238;28;20032;-75
2023/08/03 06:17:34;;;;;;;4.97;2.70;;;;;;;;;;10493312;28;20032;-77
2023/08/03 06:22:34;;;;;;;3.23;1.33;;;;;;;;;;10478517;28;20317;-79
2023/08/03 06:27:34;;;;;;;4.77;1.30;;;;;;;;;;10498963;28;20047;-79
2023/08/03 06:32:35;;;;;;;4.23;1.63;;;;;;;;;;10493942;28;20040;-73
2023/08/03 06:37:38;;;;;;;5.85;1.40;;;;;;;;;;10480244;28;20032;-76
2023/08/03 06:42:39;;;;;;;5.20;1.23;;;;;;;;;;10494583;28;20048;-78
2023/08/03 06:47:40;;;;;;;3.25;1.20;;;;;;;;;;10496894;28;20055;-80
2023/08/03 06:52:40;;;;;;;2.73;1.20;;;;;;;;;;10500743;28;20096;-80
2023/08/03 06:57:42;;;;;;;3.45;1.13;;;;;;;;;;10465065;28;20051;-79
2023/08/03 07:02:43;;;;;;;4.68;1.10;;;;;;;;;;10499925;28;20086;-75
2023/08/03 07:07:43;;;;;;;2.90;1.00;;;;;;;;;;10492166;28;20128;-78
2023/08/03 07:12:43;;;;;;;2.13;0.98;;;;;;;;;;10503918;28;20028;-77
2023/08/03 07:17:44;;;;;;;8.20;3.30;;;;;;;;;;10499103;28;20059;-82
2023/08/03 07:22:48;;;;;;;3.80;1.20;;;;;;;;;;10517595;28;20314;-83
2023/08/03 07:27:50;;;;;;;3.03;0.90;;;;;;;;;;10529483;28;20033;-82
2023/08/03 07:32:51;;;;;;;3.00;1.20;;;;;;;;;;10539337;28;20068;-82
2023/08/03 07:37:51;;;;;;;4.47;1.23;;;;;;;;;;10504736;28;20471;-77
2023/08/03 07:42:52;;;;;;;4.93;0.90;;;;;;;;;;10498596;28;20113;-81
2023/08/03 07:47:53;;;;;;;5.30;1.10;;;;;;;;;;10479917;28;20044;-80
2023/08/03 07:52:53;;;;;;;1.73;0.83;;;;;;;;;;10497920;28;20036;-80
2023/08/03 07:57:54;;;;;;;1.27;0.70;;;;;;;;;;10479011;28;20066;-79
2023/08/03 08:02:54;;;;;;;2.90;0.63;;;;;;;;;;10500016;28;20150;-81
2023/08/03 08:07:55;;;;;;;3.47;0.80;;;;;;;;;;10496958;28;20291;-81
2023/08/03 08:12:55;;;;;;;3.30;1.23;;;;;;;;;;10493407;28;20282;-82
2023/08/03 08:17:55;;;;;;;1.93;0.93;;;;;;;;;;10497922;28;20036;-82
2023/08/03 08:22:56;;;;;;;2.50;0.90;;;;;;;;;;10499779;28;20301;-81
2023/08/03 08:27:56;;;;;;;2.83;1.33;;;;;;;;;;10500551;28;20058;-77
2023/08/03 08:32:56;;;;;;;2.57;0.80;;;;;;;;;;10468710;28;20042;-79
2023/08/03 08:38:00;;;;;;;2.27;0.73;;;;;;;;;;10501160;28;20043;-80
2023/08/03 08:43:00;;;;;;;1.55;0.75;;;;;;;;;;10488009;28;21131;-81
2023/08/03 08:48:02;;;;;;;2.22;0.80;;;;;;;;;;10508485;28;20040;-79
2023/08/03 08:53:03;;;;;;;1.65;0.70;;;;;;;;;;10506416;28;20071;-79
2023/08/03 08:58:03;;;;;;;2.13;0.80;;;;;;;;;;10511885;28;20162;-81
2023/08/03 09:03:03;;;;;;;4.55;0.77;;;;;;;;;;10540840;28;20051;-79
2023/08/03 09:08:05;;;;;;;2.80;0.70;;;;;;;;;;10511952;28;20039;-79
2023/08/03 09:13:06;;;;;;;2.92;0.70;;;;;;;;;;10493778;28;20035;-79
2023/08/03 09:18:07;;;;;;;2.33;0.70;;;;;;;;;;10506448;28;20041;-81
2023/08/03 09:23:07;;;;;;;2.05;0.93;;;;;;;;;;10482643;28;20428;-80
2023/08/03 09:28:07;;;;;;;2.10;0.70;;;;;;;;;;10507008;28;20043;-79
2023/08/03 09:33:13;;;;;;;2.47;0.93;;;;;;;;;;10482769;28;20057;-80
2023/08/03 09:38:23;;;;;;;3.22;1.27;;;;;;;;;;10501580;28;21052;-81
2023/08/03 09:43:24;;;;;;;3.65;2.08;;;;;;;;;;10482686;28;20051;-79
2023/08/03 09:48:26;;;;;;;5.85;0.70;;;;;;;;;;10502652;28;21038;-81
2023/08/03 09:53:30;;;;;;;2.42;0.73;;;;;;;;;;10499983;28;20036;-80
2023/08/03 09:58:33;;;;;;;2.80;1.20;;;;;;;;;;10501292;28;20059;-79
2023/08/03 10:03:34;;;;;;;5.03;2.40;;;;;;;;;;10494740;28;20036;-81
2023/08/03 10:08:37;;;;;;;3.25;0.80;;;;;;;;;;10487726;28;20192;-79
2023/08/03 10:13:40;;;;;;;1.88;0.75;;;;;;;;;;10522784;28;20952;-86
2023/08/03 10:18:43;;;;;;;1.33;0.68;;;;;;;;;;10521694;28;20047;-86
2023/08/03 10:24:03;;;;;;;1.45;0.63;;;;;;;;;;10525545;28;20055;-83
2023/08/03 10:29:04;;;;;;;3.00;0.85;;;;;;;;;;10530565;28;20984;-82
2023/08/03 10:34:05;;;;;;;0.73;0.65;;;;;;;;;;10529687;28;20088;-82
2023/08/03 10:39:07;;;;;;;1.38;0.68;;;;;;;;;;10498150;28;20044;-82
2023/08/03 10:44:13;;;;;;;2.22;0.70;;;;;;;;;;10501927;28;20036;-80
2023/08/03 10:49:23;;;;;;;1.73;0.50;;;;;;;;;;10536625;28;20466;-81
2023/08/03 10:54:30;;;;;;;2.72;0.68;;;;;;;;;;10527016;28;20036;-82
2023/08/03 10:59:37;;;;;;;4.05;0.98;;;;;;;;;;10515699;28;20040;-83
2023/08/03 11:04:39;;;;;;;1.70;0.60;;;;;;;;;;10513227;28;20221;-83
2023/08/03 11:09:40;;;;;;;8.00;5.95;;;;;;;;;;10537621;28;20044;-83
2023/08/03 11:14:41;;;;;;;2.13;0.80;;;;;;;;;;10510523;28;20024;-80
2023/08/03 11:19:42;;;;;;;1.55;0.55;;;;;;;;;;10549516;28;20316;-83
2023/08/03 11:24:43;;;;;;;2.60;0.73;;;;;;;;;;10538595;28;20024;-81
2023/08/03 11:29:44;;;;;;;1.98;0.60;;;;;;;;;;10538036;28;20032;-84
2023/08/03 11:34:45;;;;;;;2.42;0.70;;;;;;;;;;10529887;28;20190;-81
2023/08/03 11:39:46;;;;;;;1.13;0.82;;;;;;;;;;10512674;28;20055;-84
2023/08/03 11:44:47;;;;;;;0.88;0.60;;;;;;;;;;10530023;28;20036;-82
2023/08/03 11:49:49;;;;;;;0.90;0.50;;;;;;;;;;10498460;28;20535;-87
2023/08/03 11:54:50;;;;;;;4.20;0.70;;;;;;;;;;10521062;28;20044;-84
2023/08/03 11:59:50;;;;;;;1.25;0.80;;;;;;;;;;10522229;28;20464;-79
2023/08/03 12:04:53;;;;;;;1.90;0.70;;;;;;;;;;10527880;28;20043;-84
2023/08/03 12:09:55;;;;;;;2.38;0.60;;;;;;;;;;10539764;28;20040;-83
2023/08/03 12:14:57;;;;;;;0.90;0.70;;;;;;;;;;10541425;28;20033;-82
2023/08/03 12:19:58;;;;;;;1.50;0.63;;;;;;;;;;10525814;28;20138;-83
2023/08/03 12:24:59;;;;;;;2.63;0.90;;;;;;;;;;10503076;28;20159;-85
2023/08/03 12:30:01;;;;;;;1.23;0.80;;;;;;;;;;10533396;28;20305;-82
2023/08/03 12:35:02;;;;;;;1.05;0.50;;;;;;;;;;10523058;28;20045;-81
2023/08/03 12:40:03;;;;;;;0.70;0.50;;;;;;;;;;10531428;28;20044;-82
2023/08/03 12:45:03;;;;;;;1.83;0.70;;;;;;;;;;10545118;28;20027;-84
2023/08/03 12:50:04;;;;;;;1.40;0.52;;;;;;;;;;10538736;28;20028;-89
2023/08/03 12:55:05;;;;;;;0.85;0.47;;;;;;;;;;10557284;28;20044;-88
2023/08/03 13:00:09;;;;;;;3.50;0.60;;;;;;;;;;10546824;28;20059;-83
2023/08/03 13:05:09;;;;;;;1.85;0.47;;;;;;;;;;10558062;28;20039;-82
2023/08/03 13:10:14;;;;;;;0.65;0.40;;;;;;;;;;10545891;28;20061;-80
2023/08/03 13:15:15;;;;;;;0.90;0.47;;;;;;;;;;10555536;28;20099;-87
2023/08/03 13:20:15;;;;;;;1.93;0.40;;;;;;;;;;10554206;28;20479;-83
2023/08/03 13:25:18;;;;;;;2.13;0.40;;;;;;;;;;10557284;28;20301;-83
2023/08/03 13:30:20;;;;;;;1.00;0.40;;;;;;;;;;10560559;28;20057;-85
2023/08/03 13:35:20;;;;;;;0.70;0.50;;;;;;;;;;10564987;28;20032;-84
2023/08/03 13:40:21;;;;;;;0.90;0.50;;;;;;;;;;10561120;28;20046;-86
2023/08/03 13:45:21;;;;;;;1.17;0.80;;;;;;;;;;10586733;28;20027;-87
2023/08/03 13:50:21;;;;;;;0.70;0.50;;;;;;;;;;10593822;28;20277;-82
2023/08/03 13:55:22;;;;;;;1.47;0.50;;;;;;;;;;10583441;28;20059;-84
2023/08/03 14:00:23;;;;;;;1.00;0.50;;;;;;;;;;10565289;28;20047;-81
2023/08/03 14:05:24;;;;;;;2.38;0.55;;;;;;;;;;10563737;28;20043;-83
2023/08/03 14:10:24;;;;;;;3.20;1.17;;;;;;;;;;10562732;28;20047;-84
2023/08/03 14:15:24;;;;;;;2.13;0.67;;;;;;;;;;10546329;28;20300;-83
2023/08/03 14:20:26;;;;;;;1.17;0.50;;;;;;;;;;10559246;28;20365;-85
2023/08/03 14:25:28;;;;;;;2.38;0.55;;;;;;;;;;10556751;28;20144;-80
2023/08/03 14:30:29;;;;;;;0.57;0.57;;;;;;;;;;10520123;28;20040;-84
2023/08/03 14:35:30;;;;;;;1.17;0.63;;;;;;;;;;10541122;28;20123;-85
2023/08/03 14:40:35;;;;;;;1.38;0.75;;;;;;;;;;10498016;28;20048;-85
2023/08/03 14:45:35;;;;;;;1.23;0.50;;;;;;;;;;10507723;28;20047;-82
2023/08/03 14:50:37;;;;;;;0.50;0.50;;;;;;;;;;10523482;28;20388;-84
2023/08/03 14:55:38;;;;;;;;;;;;;;;;;;10543271;28;20160;-81
2023/08/03 15:00:40;;;;;;;0.60;0.50;;;;;;;;;;10526514;28;19928;-89
2023/08/03 15:05:42;;;;;;;3.75;0.57;;;;;;;;;;10559390;27;20102;-86
2023/08/03 15:11:02;;;;;;;2.05;0.40;;;;;;;;;;10592577;27;20036;-84
2023/08/03 15:16:10;;;;;;;0.95;0.50;;;;;;;;;;10605032;27;20060;-92
2023/08/03 15:21:19;;;;;;;0.60;0.50;;;;;;;;;;10571010;27;20166;-86
2023/08/03 15:31:35;;;;;;;1.70;0.60;;;;;;;;;;10536089;27;20020;-85
2023/08/03 15:36:39;;;;;;;0.93;0.60;;;;;;;;;;10493308;28;20036;-86
2023/08/03 15:41:41;;;;;;;0.40;0.40;;;;;;;;;;10549622;28;20075;-86
2023/08/03 15:46:43;;;;;;;0.75;0.45;;;;;;;;;;10575932;28;20788;-85
2023/08/03 15:51:48;;;;;;;0.50;0.50;;;;;;;;;;10563132;27;20044;-85
2023/08/03 15:56:53;;;;;;;1.00;0.70;;;;;;;;;;10571854;28;20072;-86
2023/08/03 16:01:54;;;;;;;0.82;0.50;;;;;;;;;;10574790;28;20055;-89
2023/08/03 16:07:03;;;;;;;1.13;0.57;;;;;;;;;;10530774;22;20122;-85
2023/08/03 16:12:15;;;;;;;1.40;0.60;;;;;;;;;;10536809;27;20048;-87
2023/08/03 16:17:20;;;;;;;0.93;0.50;;;;;;;;;;10618904;27;20024;-80
2023/08/03 16:22:24;;;;;;;0.93;0.60;;;;;;;;;;10576117;28;20051;-88
2023/08/03 16:27:24;;;;;;;1.00;0.50;;;;;;;;;;10543998;28;20185;-89
2023/08/03 16:32:25;;;;;;;0.88;0.50;;;;;;;;;;10557414;28;20527;-81
2023/08/03 16:37:29;;;;;;;1.70;0.60;;;;;;;;;;10584232;28;20047;-91
2023/08/03 16:47:44;;;;;;;0.57;0.57;;;;;;;;;;10580088;28;20051;-89
2023/08/03 16:52:44;;;;;;;1.57;0.70;;;;;;;;;;10576342;27;20063;-87
2023/08/03 16:57:46;;;;;;;0.98;0.75;;;;;;;;;;10597528;27;20036;-89
2023/08/03 17:02:46;;;;;;;1.50;0.68;;;;;;;;;;10606881;27;20108;-85
2023/08/03 17:07:50;;;;;;;1.70;0.60;;;;;;;;;;10594146;22;20044;-84
2023/08/03 17:12:52;;;;;;;1.85;0.68;;;;;;;;;;10491668;28;20048;-84
2023/08/03 17:17:52;;;;;;;1.60;0.73;;;;;;;;;;10461032;28;20621;-80
2023/08/03 17:22:53;;;;;;;2.10;1.10;;;;;;;;;;10493803;28;20056;-86
2023/08/03 17:27:54;;;;;;;1.90;0.85;;;;;;;;;;10495655;28;20033;-85
2023/08/03 17:32:55;;;;;;;0.80;0.70;;;;;;;;;;10469693;28;20047;-86
2023/08/03 17:37:55;;;;;;;1.50;0.80;;;;;;;;;;10478739;28;20066;-85
2023/08/03 17:48:28;;;;;;;2.55;1.80;;;;;;;;;;10506936;28;20089;-86
2023/08/03 17:53:29;;;;;;;1.67;0.70;;;;;;;;;;10486617;28;20040;-82
2023/08/03 17:58:30;;;;;;;1.63;0.70;;;;;;;;;;10485147;28;20796;-87
2023/08/03 18:03:32;;;;;;;0.93;0.80;;;;;;;;;;10480474;28;20048;-84
2023/08/03 18:08:37;;;;;;;2.38;0.80;;;;;;;;;;10514171;28;20040;-85
2023/08/03 18:13:38;;;;;;;1.38;0.80;;;;;;;;;;10503169;28;20068;-84
2023/08/03 18:18:40;;;;;;;0.77;0.60;;;;;;;;;;10495885;28;20095;-85
2023/08/03 18:23:40;;;;;;;1.33;0.95;;;;;;;;;;10476974;28;20033;-86
2023/08/03 18:28:41;;;;;;;1.80;0.90;;;;;;;;;;10477404;28;20045;-77
2023/08/03 18:33:41;;;;;;;1.73;0.80;;;;;;;;;;10467886;28;20049;-73
2023/08/03 18:38:43;;;;;;;1.55;0.90;;;;;;;;;;10488745;28;20061;-77
2023/08/03 18:43:46;;;;;;;1.57;0.90;;;;;;;;;;10461284;28;20048;-78
2023/08/03 18:48:46;;;;;;;;;;;;;;;;;;10465322;28;20455;-79
2023/08/03 18:53:47;;;;;;;1.98;1.00;;;;;;;;;;10460866;28;19946;-78
2023/08/03 18:58:48;;;;;;;2.17;0.90;;;;;;;;;;10426818;28;20052;-76
2023/08/03 19:03:51;;;;;;;1.83;0.90;;;;;;;;;;10465884;28;20669;-76
2023/08/03 19:08:52;;;;;;;1.25;1.00;;;;;;;;;;10447385;28;20064;-76
2023/08/03 19:13:52;;;;;;;1.43;0.90;;;;;;;;;;10473000;28;20100;-86
2023/08/03 19:18:54;;;;;;;0.98;0.80;;;;;;;;;;10498969;28;20174;-86
2023/08/03 19:23:56;;;;;;;1.30;0.90;;;;;;;;;;10469145;28;20549;-87
2023/08/03 19:28:56;;;;;;;0.93;0.80;;;;;;;;;;10481786;28;20113;-82
2023/08/03 19:33:58;;;;;;;1.27;0.77;;;;;;;;;;10459540;28;20503;-85
2023/08/03 19:38:58;;;;;;;1.67;0.87;;;;;;;;;;10494337;28;20106;-87
2023/08/03 19:43:58;;;;;;;1.40;0.80;;;;;;;;;;10486507;28;20138;-76
2023/08/03 19:48:58;;;;;;;0.98;0.80;;;;;;;;;;10457524;28;20119;-76
2023/08/03 19:53:59;;;;;;;2.90;0.90;;;;;;;;;;10462861;28;20048;-77
2023/08/03 19:58:59;;;;;;;0.93;0.90;;;;;;;;;;10462384;28;20122;-76
2023/08/03 20:04:00;;;;;;;1.47;0.70;;;;;;;;;;10479124;28;20452;-81
2023/08/03 20:09:02;;;;;;;1.42;1.00;;;;;;;;;;10451545;28;20131;-81
2023/08/03 20:14:04;;;;;;;0.90;0.70;;;;;;;;;;10466736;28;20045;-80
2023/08/03 20:19:04;;;;;;;1.23;0.80;;;;;;;;;;10448070;28;20044;-85
2023/08/03 20:24:06;;;;;;;1.20;0.87;;;;;;;;;;10475343;28;20480;-85
2023/08/03 20:29:11;;;;;;;1.58;0.90;;;;;;;;;;10477581;28;20036;-84
2023/08/03 20:34:11;;;;;;;1.77;1.00;;;;;;;;;;10488128;28;20683;-83
2023/08/03 20:39:13;;;;;;;0.90;0.70;;;;;;;;;;10462791;28;20307;-81
2023/08/03 20:44:13;;;;;;;1.58;1.05;;;;;;;;;;10469247;28;20447;-80
2023/08/03 20:49:14;;;;;;;1.17;0.80;;;;;;;;;;10469617;28;20040;-81
2023/08/03 20:54:15;;;;;;;1.85;0.90;;;;;;;;;;10472982;28;20098;-80
2023/08/03 20:59:16;;;;;;;2.20;1.07;;;;;;;;;;10507343;28;20040;-88
2023/08/03 21:04:17;;;;;;;1.35;0.90;;;;;;;;;;10539691;28;20336;-80
2023/08/03 21:09:18;;;;;;;1.88;1.05;;;;;;;;;;10495934;28;20088;-82
2023/08/03 21:14:18;;;;;;;1.63;0.90;;;;;;;;;;10462087;28;20068;-84
2023/08/03 21:19:23;;;;;;;1.00;0.82;;;;;;;;;;10480204;28;20053;-81
2023/08/03 21:24:24;;;;;;;1.50;1.15;;;;;;;;;;10457405;28;20056;-80
2023/08/03 21:29:24;;;;;;;1.93;1.00;;;;;;;;;;10477989;28;20145;-79
2023/08/03 21:34:24;;;;;;;2.03;1.13;;;;;;;;;;10473461;28;20412;-84
2023/08/03 21:39:25;;;;;;;2.83;1.30;;;;;;;;;;10463254;28;20547;-84
2023/08/03 21:44:25;;;;;;;3.30;1.20;;;;;;;;;;10436376;28;21003;-81
2023/08/03 21:49:27;;;;;;;2.80;1.42;;;;;;;;;;10469473;28;20368;-84
2023/08/03 21:54:27;;;;;;;2.00;1.25;;;;;;;;;;10452183;28;20136;-80
2023/08/03 21:59:29;;;;;;;2.07;1.20;;;;;;;;;;10466838;28;20834;-79
2023/08/03 22:04:29;;;;;;;2.05;1.20;;;;;;;;;;10470201;28;20341;-83
2023/08/03 22:09:30;;;;;;;2.85;1.35;;;;;;;;;;10469160;28;20045;-78
2023/08/03 22:14:30;;;;;;;1.43;1.20;;;;;;;;;;10468312;28;20040;-78
2023/08/03 22:19:31;;;;;;;1.77;1.00;;;;;;;;;;10465094;28;20301;-82
2023/08/03 22:24:31;;;;;;;1.88;1.10;;;;;;;;;;10467697;28;20124;-78
2023/08/03 22:29:31;;;;;;;1.80;1.13;;;;;;;;;;10453088;28;20141;-80
2023/08/03 22:34:32;;;;;;;2.03;1.00;;;;;;;;;;10463539;28;20278;-78
2023/08/03 22:39:32;;;;;;;1.30;1.20;;;;;;;;;;10458130;28;20060;-78
2023/08/03 22:44:33;;;;;;;1.85;1.10;;;;;;;;;;10463569;28;20067;-80
2023/08/03 22:49:33;;;;;;;1.13;1.00;;;;;;;;;;10448972;28;20063;-82
2023/08/03 22:54:34;;;;;;;3.63;1.20;;;;;;;;;;10464056;28;21091;-80
2023/08/03 22:59:35;;;;;;;2.17;1.27;;;;;;;;;;10464248;28;20052;-81
2023/08/03 23:04:35;;;;;;;2.47;1.17;;;;;;;;;;10469701;28;20290;-84
2023/08/03 23:09:37;;;;;;;1.33;1.13;;;;;;;;;;10472309;28;20297;-82
2023/08/03 23:14:37;;;;;;;4.10;1.30;;;;;;;;;;10472199;28;20044;-82
2023/08/03 23:19:38;;;;;;;1.97;1.00;;;;;;;;;;10476976;28;20584;-82
2023/08/03 23:24:39;;;;;;;1.35;1.13;;;;;;;;;;10515133;28;20039;-86
2023/08/03 23:29:40;;;;;;;1.73;1.40;;;;;;;;;;10538346;28;20021;-87
2023/08/03 23:34:40;;;;;;;2.45;1.25;;;;;;;;;;10516308;28;20055;-83
2023/08/03 23:39:41;;;;;;;2.57;1.30;;;;;;;;;;10481589;28;20065;-85
2023/08/03 23:44:41;;;;;;;3.40;1.53;;;;;;;;;;10470303;28;20126;-85
2023/08/03 23:49:41;;;;;;;1.67;1.20;;;;;;;;;;10483218;28;20159;-84
2023/08/03 23:54:42;;;;;;;2.17;1.20;;;;;;;;;;10482524;28;20646;-84
2023/08/03 23:59:42;;;;;;;2.00;1.40;;;;;;;;;;10481753;28;20302;-83
